createdAt,value
2019-06-08T00:00:18.556Z,30.77
2019-06-08T00:00:51.691Z,30.95
2019-06-08T00:01:24.720Z,30.75
2019-06-08T00:01:57.880Z,30.60
2019-06-08T00:02:31.800Z,30.82
2019-06-08T00:03:04.933Z,30.82
2019-06-08T00:03:37.970Z,30.68
2019-06-08T00:04:14.501Z,30.90
2019-06-08T00:04:47.530Z,30.90
2019-06-08T00:05:21.092Z,31.00
2019-06-08T00:05:54.278Z,30.48
2019-06-08T00:06:27.319Z,30.95
2019-06-08T00:07:00.472Z,30.20
2019-06-08T00:07:33.647Z,30.43
2019-06-08T00:08:06.752Z,30.52
2019-06-08T00:08:40.541Z,31.10
2019-06-08T00:09:14.707Z,30.30
2019-06-08T00:09:47.784Z,30.37
2019-06-08T00:10:23.680Z,30.35
2019-06-08T00:10:57.800Z,30.37
2019-06-08T00:11:31.946Z,30.60
2019-06-08T00:12:04.974Z,30.80
2019-06-08T00:12:38.000Z,30.45
2019-06-08T00:13:11.036Z,31.20
2019-06-08T00:13:44.052Z,30.50
2019-06-08T00:14:17.458Z,30.32
2019-06-08T00:14:50.580Z,30.70
2019-06-08T00:15:24.446Z,30.40
2019-06-08T00:15:57.564Z,30.88
2019-06-08T00:16:30.374Z,30.75
2019-06-08T00:17:03.351Z,30.35
2019-06-08T00:17:38.983Z,30.30
2019-06-08T00:18:13.180Z,30.40
2019-06-08T00:18:46.317Z,30.32
2019-06-08T00:19:21.461Z,30.50
2019-06-08T00:19:56.472Z,30.37
2019-06-08T00:20:29.515Z,30.23
2019-06-08T00:21:02.569Z,30.52
2019-06-08T00:21:35.537Z,30.52
2019-06-08T00:22:08.978Z,30.30
2019-06-08T00:22:42.106Z,30.43
2019-06-08T00:23:16.142Z,30.47
2019-06-08T00:23:49.175Z,30.60
2019-06-08T00:24:24.087Z,31.17
2019-06-08T00:24:57.054Z,30.52
2019-06-08T00:25:29.871Z,30.80
2019-06-08T00:26:03.024Z,30.77
2019-06-08T00:26:36.046Z,30.50
2019-06-08T00:27:09.000Z,30.57
2019-06-08T00:27:42.027Z,30.20
2019-06-08T00:28:16.115Z,30.10
2019-06-08T00:28:49.560Z,30.55
2019-06-08T00:29:22.718Z,30.48
2019-06-08T00:29:55.557Z,30.40
2019-06-08T00:30:28.936Z,30.70
2019-06-08T00:31:01.940Z,31.05
2019-06-08T00:31:34.997Z,30.95
2019-06-08T00:32:08.025Z,30.92
2019-06-08T00:32:41.226Z,30.50
2019-06-08T00:33:14.369Z,30.70
2019-06-08T00:33:47.366Z,30.75
2019-06-08T00:34:20.664Z,30.60
2019-06-08T00:34:54.971Z,31.00
2019-06-08T00:35:27.983Z,31.20
2019-06-08T00:36:00.915Z,30.75
2019-06-08T00:36:33.902Z,31.02
2019-06-08T00:37:06.734Z,30.60
2019-06-08T00:37:39.654Z,31.10
2019-06-08T00:38:12.795Z,30.57
2019-06-08T00:38:45.790Z,30.97
2019-06-08T00:39:18.942Z,30.97
2019-06-08T00:39:51.774Z,30.62
2019-06-08T00:40:25.241Z,30.70
2019-06-08T00:40:58.259Z,31.27
2019-06-08T00:41:31.140Z,30.60
2019-06-08T00:42:04.260Z,30.85
2019-06-08T00:42:37.207Z,30.77
2019-06-08T00:43:10.092Z,30.92
2019-06-08T00:43:43.109Z,30.37
2019-06-08T00:44:17.138Z,30.60
2019-06-08T00:44:50.273Z,31.17
2019-06-08T00:45:23.667Z,30.40
2019-06-08T00:45:56.741Z,30.62
2019-06-08T00:46:29.739Z,31.12
2019-06-08T00:47:02.968Z,30.90
2019-06-08T00:47:47.660Z,31.48
2019-06-08T00:48:11.051Z,31.07
2019-06-08T00:48:44.032Z,31.50
2019-06-08T00:49:17.077Z,31.23
2019-06-08T00:49:51.198Z,31.55
2019-06-08T00:50:25.178Z,31.33
2019-06-08T00:50:58.332Z,31.00
2019-06-08T00:51:31.268Z,31.07
2019-06-08T00:52:04.248Z,31.10
2019-06-08T00:52:37.530Z,31.35
2019-06-08T00:53:10.523Z,31.70
2019-06-08T00:53:43.568Z,31.00
2019-06-08T00:54:17.354Z,31.35
2019-06-08T00:54:50.412Z,31.05
2019-06-08T00:55:23.791Z,31.70
2019-06-08T00:55:56.753Z,31.07
2019-06-08T00:56:30.051Z,31.45
2019-06-08T00:57:03.107Z,31.05
2019-06-08T00:57:37.134Z,31.25
2019-06-08T00:58:10.291Z,31.30
2019-06-08T00:58:43.294Z,31.15
2019-06-08T00:59:16.351Z,31.33
2019-06-08T00:59:50.436Z,31.10
2019-06-08T01:00:24.504Z,31.07
2019-06-08T01:00:57.978Z,31.20
2019-06-08T01:01:31.051Z,31.30
2019-06-08T01:02:03.997Z,31.17
2019-06-08T01:02:37.139Z,31.40
2019-06-08T01:03:10.255Z,31.55
2019-06-08T01:03:43.312Z,31.80
2019-06-08T01:04:16.469Z,31.55
2019-06-08T01:04:49.358Z,31.15
2019-06-08T01:05:23.921Z,31.48
2019-06-08T01:05:56.962Z,31.10
2019-06-08T01:06:29.994Z,31.30
2019-06-08T01:07:03.052Z,30.70
2019-06-08T01:07:36.058Z,30.72
2019-06-08T01:08:09.163Z,31.27
2019-06-08T01:08:43.638Z,30.88
2019-06-08T01:09:18.135Z,30.88
2019-06-08T01:09:52.744Z,31.37
2019-06-08T01:10:25.908Z,30.97
2019-06-08T01:10:58.882Z,31.02
2019-06-08T01:11:31.745Z,31.00
2019-06-08T01:12:05.134Z,31.02
2019-06-08T01:12:38.184Z,31.17
2019-06-08T01:13:11.201Z,31.23
2019-06-08T01:13:44.316Z,31.40
2019-06-08T01:14:18.820Z,31.45
2019-06-08T01:14:52.146Z,30.70
2019-06-08T01:15:32.230Z,31.60
2019-06-08T01:16:00.232Z,31.35
2019-06-08T01:16:33.342Z,31.50
2019-06-08T01:17:06.396Z,31.90
2019-06-08T01:17:39.377Z,31.50
2019-06-08T01:18:12.437Z,31.40
2019-06-08T01:18:45.319Z,31.68
2019-06-08T01:19:19.190Z,31.37
2019-06-08T01:19:52.300Z,31.45
2019-06-08T01:20:25.660Z,31.30
2019-06-08T01:20:58.823Z,31.77
2019-06-08T01:21:32.028Z,31.50
2019-06-08T01:22:05.004Z,32.33
2019-06-08T01:22:38.046Z,31.02
2019-06-08T01:23:11.173Z,31.68
2019-06-08T01:23:44.192Z,31.30
2019-06-08T01:24:17.284Z,31.27
2019-06-08T01:24:50.328Z,31.70
2019-06-08T01:25:23.714Z,31.70
2019-06-08T01:25:56.875Z,31.68
2019-06-08T01:26:30.230Z,31.90
2019-06-08T01:27:03.657Z,31.48
2019-06-08T01:27:36.666Z,31.05
2019-06-08T01:28:09.853Z,31.80
2019-06-08T01:28:42.858Z,32.10
2019-06-08T01:29:17.666Z,31.80
2019-06-08T01:29:50.749Z,31.70
2019-06-08T01:30:24.239Z,31.82
2019-06-08T01:30:57.388Z,32.05
2019-06-08T01:31:30.560Z,32.28
2019-06-08T01:32:03.568Z,31.80
2019-06-08T01:32:36.605Z,31.73
2019-06-08T01:33:09.686Z,31.90
2019-06-08T01:33:42.732Z,31.60
2019-06-08T01:34:16.745Z,31.85
2019-06-08T01:34:49.742Z,31.35
2019-06-08T01:35:22.958Z,31.17
2019-06-08T01:35:55.946Z,31.73
2019-06-08T01:36:29.241Z,31.93
2019-06-08T01:37:04.616Z,31.70
2019-06-08T01:37:37.709Z,31.48
2019-06-08T01:38:10.865Z,31.52
2019-06-08T01:38:43.892Z,31.65
2019-06-08T01:39:16.837Z,31.70
2019-06-08T01:39:49.636Z,31.53
2019-06-08T01:40:23.286Z,31.20
2019-06-08T01:40:56.376Z,30.88
2019-06-08T01:41:29.688Z,31.50
2019-06-08T01:42:02.741Z,31.52
2019-06-08T01:42:35.798Z,31.85
2019-06-08T01:43:08.809Z,31.37
2019-06-08T01:43:42.117Z,31.90
2019-06-08T01:44:15.021Z,31.75
2019-06-08T01:44:47.970Z,31.50
2019-06-08T01:45:39.543Z,31.30
2019-06-08T01:46:12.566Z,30.90
2019-06-08T01:46:45.475Z,31.35
2019-06-08T01:47:18.513Z,30.90
2019-06-08T01:47:51.435Z,30.95
2019-06-08T01:48:24.379Z,31.25
2019-06-08T01:48:57.382Z,30.90
2019-06-08T01:49:30.551Z,30.40
2019-06-08T01:50:04.406Z,30.85
2019-06-08T01:50:37.442Z,31.07
2019-06-08T01:51:10.561Z,31.30
2019-06-08T01:51:44.438Z,30.92
2019-06-08T01:52:17.340Z,30.90
2019-06-08T01:52:50.141Z,30.72
2019-06-08T01:53:23.174Z,31.02
2019-06-08T01:53:56.222Z,31.15
2019-06-08T01:54:29.758Z,31.07
2019-06-08T01:55:03.659Z,30.85
2019-06-08T01:55:36.568Z,31.20
2019-06-08T01:56:09.666Z,31.10
2019-06-08T01:56:42.663Z,31.10
2019-06-08T01:57:15.628Z,30.85
2019-06-08T01:57:48.772Z,30.68
2019-06-08T01:58:23.275Z,31.20
2019-06-08T01:58:56.460Z,30.88
2019-06-08T01:59:29.667Z,30.70
2019-06-08T02:00:28.705Z,31.33
2019-06-08T02:00:41.647Z,31.10
2019-06-08T02:01:14.666Z,31.15
2019-06-08T02:01:47.706Z,31.27
2019-06-08T02:02:20.712Z,31.17
2019-06-08T02:02:53.982Z,31.25
2019-06-08T02:03:28.085Z,31.20
2019-06-08T02:04:01.463Z,31.40
2019-06-08T02:04:34.806Z,30.88
2019-06-08T02:05:08.183Z,31.27
2019-06-08T02:05:41.432Z,30.85
2019-06-08T02:06:14.723Z,31.15
2019-06-08T02:06:47.734Z,31.25
2019-06-08T02:07:20.806Z,31.17
2019-06-08T02:07:53.947Z,31.65
2019-06-08T02:08:26.866Z,31.17
2019-06-08T02:08:59.797Z,31.40
2019-06-08T02:09:32.865Z,31.20
2019-06-08T02:10:05.940Z,31.35
2019-06-08T02:10:38.969Z,31.20
2019-06-08T02:11:11.995Z,31.20
2019-06-08T02:11:45.048Z,31.17
2019-06-08T02:12:18.050Z,31.60
2019-06-08T02:12:51.240Z,31.25
2019-06-08T02:13:24.956Z,31.37
2019-06-08T02:13:58.100Z,31.20
2019-06-08T02:14:31.255Z,31.20
2019-06-08T02:15:04.756Z,31.45
2019-06-08T02:15:37.788Z,30.90
2019-06-08T02:16:11.017Z,31.52
2019-06-08T02:16:43.927Z,31.10
2019-06-08T02:17:16.876Z,31.20
2019-06-08T02:17:49.758Z,31.20
2019-06-08T02:18:36.476Z,30.72
2019-06-08T02:18:57.695Z,31.17
2019-06-08T02:19:30.639Z,31.05
2019-06-08T02:20:04.798Z,31.25
2019-06-08T02:20:39.252Z,31.10
2019-06-08T02:21:12.409Z,30.70
2019-06-08T02:21:45.508Z,30.70
2019-06-08T02:22:18.532Z,30.55
2019-06-08T02:22:51.593Z,30.70
2019-06-08T02:23:24.600Z,30.85
2019-06-08T02:23:57.693Z,31.40
2019-06-08T02:24:31.172Z,30.70
2019-06-08T02:25:07.208Z,30.88
2019-06-08T02:25:40.219Z,30.40
2019-06-08T02:26:13.392Z,30.65
2019-06-08T02:26:46.177Z,30.60
2019-06-08T02:27:20.734Z,30.35
2019-06-08T02:27:53.864Z,30.17
2019-06-08T02:28:27.432Z,30.50
2019-06-08T02:29:00.713Z,30.88
2019-06-08T02:29:33.766Z,30.48
2019-06-08T02:30:09.304Z,30.37
2019-06-08T02:30:42.364Z,30.15
2019-06-08T02:31:15.372Z,30.40
2019-06-08T02:31:48.493Z,30.82
2019-06-08T02:32:21.525Z,30.52
2019-06-08T02:32:54.390Z,30.20
2019-06-08T02:33:28.287Z,30.50
2019-06-08T02:34:01.603Z,30.43
2019-06-08T02:34:35.970Z,30.72
2019-06-08T02:35:09.736Z,30.85
2019-06-08T02:35:42.736Z,30.40
2019-06-08T02:36:15.667Z,30.88
2019-06-08T02:36:48.470Z,30.88
2019-06-08T02:37:21.578Z,30.77
2019-06-08T02:37:54.681Z,30.62
2019-06-08T02:38:29.760Z,30.50
2019-06-08T02:39:03.834Z,30.35
2019-06-08T02:39:38.416Z,30.40
2019-06-08T02:40:13.025Z,31.05
2019-06-08T02:40:46.096Z,31.15
2019-06-08T02:41:19.171Z,30.20
2019-06-08T02:41:53.255Z,30.40
2019-06-08T02:42:28.208Z,30.77
2019-06-08T02:43:01.334Z,30.80
2019-06-08T02:43:35.804Z,31.00
2019-06-08T02:44:09.378Z,30.70
2019-06-08T02:44:42.688Z,30.50
2019-06-08T02:45:16.021Z,30.50
2019-06-08T02:45:49.050Z,30.50
2019-06-08T02:46:22.099Z,30.80
2019-06-08T02:46:55.111Z,30.50
2019-06-08T02:47:28.378Z,30.20
2019-06-08T02:48:02.211Z,30.55
2019-06-08T02:48:37.270Z,30.72
2019-06-08T02:49:10.369Z,30.43
2019-06-08T02:49:43.528Z,30.30
2019-06-08T02:50:37.403Z,30.25
2019-06-08T02:51:12.228Z,30.17
2019-06-08T02:51:45.519Z,30.32
2019-06-08T02:52:18.855Z,30.40
2019-06-08T02:52:51.844Z,30.60
2019-06-08T02:53:26.264Z,30.40
2019-06-08T02:54:00.822Z,30.25
2019-06-08T02:54:35.361Z,30.20
2019-06-08T02:55:09.570Z,30.70
2019-06-08T02:55:44.365Z,30.45
2019-06-08T02:56:19.375Z,30.40
2019-06-08T02:56:54.612Z,30.30
2019-06-08T02:57:29.263Z,30.40
2019-06-08T02:58:04.842Z,30.17
2019-06-08T02:58:40.959Z,30.23
2019-06-08T02:59:14.377Z,30.57
2019-06-08T02:59:48.395Z,29.80
2019-06-08T03:00:21.457Z,30.20
2019-06-08T03:00:55.349Z,29.92
2019-06-08T03:01:31.433Z,30.50
2019-06-08T03:02:04.769Z,30.17
2019-06-08T03:02:41.139Z,30.35
2019-06-08T03:03:14.597Z,30.27
2019-06-08T03:03:50.019Z,30.60
2019-06-08T03:04:25.243Z,30.80
2019-06-08T03:05:01.596Z,30.48
2019-06-08T03:05:38.114Z,30.27
2019-06-08T03:06:13.064Z,30.65
2019-06-08T03:06:47.895Z,30.37
2019-06-08T03:07:22.405Z,30.60
2019-06-08T03:07:56.164Z,30.80
2019-06-08T03:08:34.294Z,30.48
2019-06-08T03:09:07.526Z,30.23
2019-06-08T03:09:41.950Z,30.55
2019-06-08T03:10:15.177Z,30.40
2019-06-08T03:10:51.066Z,30.37
2019-06-08T03:11:25.171Z,30.30
2019-06-08T03:12:01.518Z,30.37
2019-06-08T03:12:39.691Z,30.70
2019-06-08T03:13:12.526Z,30.45
2019-06-08T03:13:47.472Z,30.55
2019-06-08T03:14:25.283Z,30.00
2019-06-08T03:15:03.100Z,30.82
2019-06-08T03:15:37.100Z,30.23
2019-06-08T03:16:11.082Z,30.40
2019-06-08T03:16:43.973Z,30.72
2019-06-08T03:17:17.033Z,30.70
2019-06-08T03:17:49.972Z,30.72
2019-06-08T03:18:23.013Z,30.60
2019-06-08T03:18:56.091Z,30.97
2019-06-08T03:19:29.243Z,30.80
2019-06-08T03:20:02.609Z,30.85
2019-06-08T03:20:35.846Z,30.50
2019-06-08T03:21:09.261Z,31.02
2019-06-08T03:21:42.539Z,31.15
2019-06-08T03:22:16.714Z,30.77
2019-06-08T03:22:51.337Z,31.10
2019-06-08T03:23:24.238Z,30.97
2019-06-08T03:23:57.086Z,31.40
2019-06-08T03:24:29.877Z,31.00
2019-06-08T03:25:03.270Z,31.42
2019-06-08T03:25:45.888Z,31.12
2019-06-08T03:26:11.039Z,30.77
2019-06-08T03:26:44.307Z,31.12
2019-06-08T03:27:17.294Z,31.40
2019-06-08T03:27:50.100Z,31.50
2019-06-08T03:28:23.146Z,30.90
2019-06-08T03:28:56.258Z,30.90
2019-06-08T03:29:29.196Z,31.00
2019-06-08T03:30:15.982Z,30.50
2019-06-08T03:30:44.591Z,30.88
2019-06-08T03:31:12.601Z,30.90
2019-06-08T03:31:54.636Z,30.80
2019-06-08T03:32:20.740Z,31.02
2019-06-08T03:32:56.249Z,30.85
2019-06-08T03:33:28.665Z,31.33
2019-06-08T03:34:01.810Z,31.20
2019-06-08T03:34:39.738Z,30.95
2019-06-08T03:35:09.916Z,30.75
2019-06-08T03:35:52.052Z,31.48
2019-06-08T03:36:17.804Z,30.75
2019-06-08T03:36:55.801Z,30.72
2019-06-08T03:37:25.456Z,31.20
2019-06-08T03:38:00.336Z,30.55
2019-06-08T03:38:33.864Z,30.82
2019-06-08T03:39:07.352Z,30.72
2019-06-08T03:39:41.318Z,30.95
2019-06-08T03:40:15.654Z,31.10
2019-06-08T03:40:48.596Z,30.93
2019-06-08T03:41:21.598Z,31.07
2019-06-08T03:41:54.640Z,31.20
2019-06-08T03:42:27.635Z,30.80
2019-06-08T03:43:01.847Z,31.02
2019-06-08T03:43:35.484Z,31.00
2019-06-08T03:44:09.932Z,30.97
2019-06-08T03:44:44.964Z,31.00
2019-06-08T03:45:18.262Z,30.90
2019-06-08T03:45:51.254Z,30.48
2019-06-08T03:46:24.150Z,30.80
2019-06-08T03:46:56.980Z,30.97
2019-06-08T03:47:30.001Z,30.77
2019-06-08T03:48:03.170Z,31.00
2019-06-08T03:48:37.190Z,31.10
2019-06-08T03:49:10.823Z,30.97
2019-06-08T03:49:54.874Z,30.80
2019-06-08T03:50:19.252Z,30.82
2019-06-08T03:50:52.344Z,30.90
2019-06-08T03:51:25.272Z,31.00
2019-06-08T03:51:58.172Z,30.77
2019-06-08T03:52:32.736Z,31.02
2019-06-08T03:53:05.863Z,30.92
2019-06-08T03:53:40.083Z,31.07
2019-06-08T03:54:13.482Z,31.33
2019-06-08T03:54:47.051Z,30.88
2019-06-08T03:55:21.185Z,31.15
2019-06-08T03:55:54.238Z,31.00
2019-06-08T03:56:27.134Z,30.97
2019-06-08T03:57:00.080Z,31.40
2019-06-08T03:57:33.288Z,31.00
2019-06-08T03:58:06.432Z,30.85
2019-06-08T03:58:40.580Z,30.90
2019-06-08T03:59:14.953Z,31.00
2019-06-08T03:59:47.995Z,31.12
2019-06-08T04:00:21.087Z,30.95
2019-06-08T04:00:54.123Z,31.20
2019-06-08T04:01:27.049Z,31.25
2019-06-08T04:02:00.120Z,31.30
2019-06-08T04:02:33.259Z,32.30
2019-06-08T04:03:06.441Z,31.48
2019-06-08T04:03:41.418Z,31.55
2019-06-08T04:04:14.294Z,31.42
2019-06-08T04:04:47.184Z,31.20
2019-06-08T04:05:20.436Z,31.40
2019-06-08T04:05:53.246Z,31.20
2019-06-08T04:06:27.108Z,31.55
2019-06-08T04:06:59.911Z,32.08
2019-06-08T04:07:32.962Z,31.42
2019-06-08T04:08:05.959Z,31.50
2019-06-08T04:08:40.866Z,31.20
2019-06-08T04:09:14.486Z,31.55
2019-06-08T04:09:47.442Z,31.52
2019-06-08T04:10:20.551Z,32.17
2019-06-08T04:10:53.520Z,31.93
2019-06-08T04:11:26.610Z,32.10
2019-06-08T04:11:59.462Z,31.95
2019-06-08T04:12:32.400Z,31.90
2019-06-08T04:13:05.432Z,31.87
2019-06-08T04:13:39.925Z,31.85
2019-06-08T04:14:13.146Z,31.95
2019-06-08T04:14:46.624Z,32.20
2019-06-08T04:15:19.783Z,31.75
2019-06-08T04:15:53.628Z,31.82
2019-06-08T04:16:26.653Z,32.20
2019-06-08T04:16:59.700Z,31.25
2019-06-08T04:17:33.741Z,31.87
2019-06-08T04:18:06.658Z,31.60
2019-06-08T04:18:40.268Z,31.68
2019-06-08T04:19:14.466Z,31.93
2019-06-08T04:20:08.247Z,31.82
2019-06-08T04:20:22.307Z,31.55
2019-06-08T04:20:55.408Z,31.68
2019-06-08T04:21:28.313Z,31.50
2019-06-08T04:22:01.361Z,31.10
2019-06-08T04:22:44.479Z,31.27
2019-06-08T04:23:17.513Z,31.23
2019-06-08T04:23:50.759Z,31.45
2019-06-08T04:24:23.954Z,31.33
2019-06-08T04:24:56.847Z,31.02
2019-06-08T04:25:29.907Z,31.62
2019-06-08T04:26:02.907Z,31.77
2019-06-08T04:26:35.897Z,31.20
2019-06-08T04:27:08.796Z,31.57
2019-06-08T04:27:42.237Z,32.20
2019-06-08T04:28:15.374Z,31.23
2019-06-08T04:28:49.660Z,31.42
2019-06-08T04:29:22.816Z,31.42
2019-06-08T04:29:55.651Z,31.48
2019-06-08T04:30:28.526Z,31.42
2019-06-08T04:31:01.451Z,31.17
2019-06-08T04:31:34.520Z,31.10
2019-06-08T04:32:07.538Z,31.45
2019-06-08T04:32:40.761Z,31.45
2019-06-08T04:33:13.909Z,31.12
2019-06-08T04:33:46.969Z,31.62
2019-06-08T04:34:20.069Z,31.05
2019-06-08T04:34:52.869Z,31.45
2019-06-08T04:35:25.778Z,31.00
2019-06-08T04:35:59.406Z,31.70
2019-06-08T04:36:32.477Z,31.30
2019-06-08T04:37:05.814Z,31.15
2019-06-08T04:37:40.384Z,31.75
2019-06-08T04:38:13.641Z,31.15
2019-06-08T04:38:47.841Z,30.95
2019-06-08T04:39:21.958Z,30.95
2019-06-08T04:39:55.108Z,30.92
2019-06-08T04:40:28.143Z,30.97
2019-06-08T04:41:01.190Z,30.48
2019-06-08T04:41:34.227Z,31.00
2019-06-08T04:42:07.145Z,30.90
2019-06-08T04:42:41.806Z,30.60
2019-06-08T04:43:16.207Z,30.50
2019-06-08T04:43:49.774Z,30.82
2019-06-08T04:44:22.859Z,31.10
2019-06-08T04:44:55.761Z,30.60
2019-06-08T04:45:28.672Z,30.10
2019-06-08T04:46:01.693Z,30.97
2019-06-08T04:46:34.586Z,30.85
2019-06-08T04:47:07.627Z,30.70
2019-06-08T04:47:41.506Z,30.30
2019-06-08T04:48:15.427Z,30.10
2019-06-08T04:48:49.970Z,30.10
2019-06-08T04:49:23.376Z,30.70
2019-06-08T04:49:56.284Z,30.45
2019-06-08T04:50:29.416Z,30.68
2019-06-08T04:51:02.370Z,30.00
2019-06-08T04:51:35.348Z,30.40
2019-06-08T04:52:08.368Z,30.37
2019-06-08T04:52:44.925Z,30.20
2019-06-08T04:53:18.310Z,30.30
2019-06-08T04:53:51.255Z,30.30
2019-06-08T04:54:24.290Z,30.40
2019-06-08T04:54:57.180Z,30.48
2019-06-08T04:55:30.136Z,30.35
2019-06-08T04:56:03.301Z,30.30
2019-06-08T04:56:38.589Z,30.35
2019-06-08T04:57:11.719Z,30.15
2019-06-08T04:57:46.036Z,30.20
2019-06-08T04:58:19.539Z,30.40
2019-06-08T04:58:52.572Z,30.88
2019-06-08T04:59:25.459Z,30.70
2019-06-08T05:00:00.157Z,30.50
2019-06-08T05:00:33.404Z,30.62
2019-06-08T05:01:06.554Z,30.50
2019-06-08T05:01:40.867Z,30.60
2019-06-08T05:02:13.988Z,30.50
2019-06-08T05:02:48.865Z,30.35
2019-06-08T05:03:21.631Z,30.80
2019-06-08T05:03:54.640Z,30.82
2019-06-08T05:04:27.613Z,30.95
2019-06-08T05:05:00.640Z,30.65
2019-06-08T05:05:33.654Z,30.80
2019-06-08T05:06:07.798Z,31.00
2019-06-08T05:06:41.062Z,31.00
2019-06-08T05:07:14.176Z,30.90
2019-06-08T05:07:48.478Z,31.40
2019-06-08T05:08:22.120Z,30.97
2019-06-08T05:08:55.228Z,30.70
2019-06-08T05:09:28.210Z,31.07
2019-06-08T05:10:01.292Z,30.62
2019-06-08T05:10:34.309Z,30.90
2019-06-08T05:11:07.248Z,30.88
2019-06-08T05:11:41.086Z,30.90
2019-06-08T05:12:15.361Z,31.07
2019-06-08T05:12:50.059Z,30.57
2019-06-08T05:13:23.121Z,30.70
2019-06-08T05:13:56.219Z,30.68
2019-06-08T05:14:29.899Z,30.50
2019-06-08T05:15:03.412Z,30.75
2019-06-08T05:15:36.440Z,31.45
2019-06-08T05:16:09.316Z,31.05
2019-06-08T05:16:43.170Z,30.75
2019-06-08T05:17:16.137Z,31.17
2019-06-08T05:17:49.730Z,30.90
2019-06-08T05:18:25.958Z,31.12
2019-06-08T05:18:57.733Z,30.43
2019-06-08T05:19:30.908Z,30.62
2019-06-08T05:20:05.613Z,30.80
2019-06-08T05:20:41.349Z,30.40
2019-06-08T05:21:13.176Z,30.50
2019-06-08T05:21:47.428Z,30.57
2019-06-08T05:22:20.669Z,30.60
2019-06-08T05:22:54.756Z,30.40
2019-06-08T05:23:27.756Z,30.68
2019-06-08T05:24:00.625Z,30.12
2019-06-08T05:24:33.401Z,30.52
2019-06-08T05:25:06.593Z,30.37
2019-06-08T05:25:39.622Z,30.40
2019-06-08T05:26:12.578Z,30.80
2019-06-08T05:26:45.466Z,30.50
2019-06-08T05:27:18.636Z,30.60
2019-06-08T05:27:51.534Z,30.60
2019-06-08T05:28:24.613Z,30.72
2019-06-08T05:28:57.588Z,31.12
2019-06-08T05:29:30.544Z,30.48
2019-06-08T05:30:08.776Z,30.68
2019-06-08T05:30:41.204Z,30.60
2019-06-08T05:31:14.281Z,30.92
2019-06-08T05:31:48.041Z,30.90
2019-06-08T05:32:20.996Z,30.70
2019-06-08T05:32:53.970Z,30.80
2019-06-08T05:33:26.891Z,30.50
2019-06-08T05:33:59.896Z,30.70
2019-06-08T05:34:33.002Z,30.95
2019-06-08T05:35:06.106Z,31.12
2019-06-08T05:35:39.438Z,30.95
2019-06-08T05:36:12.530Z,31.52
2019-06-08T05:36:45.486Z,31.23
2019-06-08T05:37:18.560Z,30.95
2019-06-08T05:37:51.473Z,30.82
2019-06-08T05:38:24.319Z,31.35
2019-06-08T05:38:57.402Z,30.90
2019-06-08T05:39:30.338Z,31.30
2019-06-08T05:40:04.053Z,31.45
2019-06-08T05:40:36.970Z,30.60
2019-06-08T05:41:09.982Z,31.65
2019-06-08T05:41:43.466Z,31.30
2019-06-08T05:42:16.554Z,31.27
2019-06-08T05:42:49.986Z,31.02
2019-06-08T05:43:23.080Z,30.97
2019-06-08T05:43:56.002Z,31.20
2019-06-08T05:44:29.001Z,31.10
2019-06-08T05:45:02.010Z,31.65
2019-06-08T05:45:35.043Z,31.23
2019-06-08T05:46:08.237Z,30.95
2019-06-08T05:46:41.747Z,31.60
2019-06-08T05:47:14.699Z,31.10
2019-06-08T05:47:48.028Z,31.57
2019-06-08T05:48:21.155Z,31.62
2019-06-08T05:48:54.527Z,31.45
2019-06-08T05:49:27.826Z,31.40
2019-06-08T05:50:00.949Z,31.42
2019-06-08T05:50:33.960Z,31.57
2019-06-08T05:51:06.871Z,31.82
2019-06-08T05:51:39.870Z,32.00
2019-06-08T05:52:12.706Z,32.13
2019-06-08T05:52:45.912Z,31.60
2019-06-08T05:53:18.906Z,32.05
2019-06-08T05:53:51.852Z,33.05
2019-06-08T05:54:24.881Z,31.93
2019-06-08T05:54:57.939Z,31.95
2019-06-08T05:55:31.109Z,32.10
2019-06-08T05:56:04.104Z,32.28
2019-06-08T05:56:36.990Z,32.20
2019-06-08T05:57:10.062Z,31.80
2019-06-08T05:57:44.212Z,32.08
2019-06-08T05:58:17.368Z,32.20
2019-06-08T05:58:50.542Z,31.97
2019-06-08T05:59:23.648Z,31.97
2019-06-08T05:59:57.625Z,31.82
2019-06-08T06:00:30.665Z,31.60
2019-06-08T06:01:03.785Z,31.70
2019-06-08T06:01:36.681Z,32.30
2019-06-08T06:02:09.856Z,31.70
2019-06-08T06:02:44.760Z,32.10
2019-06-08T06:03:17.742Z,32.08
2019-06-08T06:03:51.927Z,31.48
2019-06-08T06:04:25.091Z,31.52
2019-06-08T06:04:58.036Z,32.00
2019-06-08T06:05:32.184Z,31.50
2019-06-08T06:06:05.629Z,32.17
2019-06-08T06:06:38.517Z,31.35
2019-06-08T06:07:11.641Z,31.50
2019-06-08T06:07:44.750Z,31.68
2019-06-08T06:08:19.281Z,31.73
2019-06-08T06:08:52.441Z,31.70
2019-06-08T06:09:25.280Z,31.80
2019-06-08T06:09:58.167Z,31.65
2019-06-08T06:10:31.231Z,31.77
2019-06-08T06:11:04.229Z,31.45
2019-06-08T06:11:37.548Z,31.25
2019-06-08T06:12:11.002Z,30.90
2019-06-08T06:12:45.244Z,31.42
2019-06-08T06:13:18.203Z,31.40
2019-06-08T06:13:51.532Z,31.55
2019-06-08T06:14:25.315Z,31.52
2019-06-08T06:14:58.384Z,31.95
2019-06-08T06:15:31.374Z,32.03
2019-06-08T06:16:04.550Z,31.65
2019-06-08T06:16:37.441Z,31.85
2019-06-08T06:17:11.506Z,31.70
2019-06-08T06:17:46.723Z,31.52
2019-06-08T06:18:19.330Z,31.52
2019-06-08T06:18:52.440Z,32.05
2019-06-08T06:19:25.429Z,31.87
2019-06-08T06:19:58.368Z,31.75
2019-06-08T06:20:31.469Z,31.68
2019-06-08T06:21:10.891Z,31.65
2019-06-08T06:21:39.510Z,30.97
2019-06-08T06:22:12.480Z,31.80
2019-06-08T06:22:45.912Z,31.60
2019-06-08T06:23:20.490Z,31.60
2019-06-08T06:23:53.538Z,31.80
2019-06-08T06:24:26.599Z,31.17
2019-06-08T06:24:59.803Z,31.52
2019-06-08T06:25:32.983Z,31.17
2019-06-08T06:26:06.991Z,31.45
2019-06-08T06:26:41.221Z,31.20
2019-06-08T06:27:14.338Z,32.05
2019-06-08T06:27:47.647Z,31.68
2019-06-08T06:28:22.301Z,31.37
2019-06-08T06:28:55.364Z,31.93
2019-06-08T06:29:28.557Z,31.15
2019-06-08T06:30:01.834Z,31.80
2019-06-08T06:30:35.126Z,31.52
2019-06-08T06:31:08.160Z,31.23
2019-06-08T06:31:41.712Z,31.40
2019-06-08T06:32:15.982Z,31.42
2019-06-08T06:32:50.189Z,31.23
2019-06-08T06:33:23.308Z,31.35
2019-06-08T06:33:56.462Z,31.33
2019-06-08T06:34:29.452Z,31.97
2019-06-08T06:35:02.576Z,31.65
2019-06-08T06:35:35.911Z,31.48
2019-06-08T06:36:09.089Z,31.70
2019-06-08T06:36:42.213Z,31.87
2019-06-08T06:37:15.297Z,31.52
2019-06-08T06:37:48.437Z,31.50
2019-06-08T06:38:21.556Z,31.90
2019-06-08T06:38:56.104Z,31.15
2019-06-08T06:39:29.003Z,31.27
2019-06-08T06:40:02.253Z,31.30
2019-06-08T06:40:35.296Z,31.12
2019-06-08T06:41:08.355Z,31.40
2019-06-08T06:41:41.846Z,31.35
2019-06-08T06:42:16.698Z,31.80
2019-06-08T06:42:50.099Z,31.70
2019-06-08T06:43:23.150Z,31.77
2019-06-08T06:43:56.713Z,32.13
2019-06-08T06:44:29.667Z,31.42
2019-06-08T06:45:03.321Z,31.40
2019-06-08T06:45:36.382Z,31.82
2019-06-08T06:46:09.522Z,31.20
2019-06-08T06:46:43.893Z,31.57
2019-06-08T06:47:17.057Z,32.13
2019-06-08T06:47:50.440Z,31.55
2019-06-08T06:48:23.798Z,31.93
2019-06-08T06:48:57.028Z,31.70
2019-06-08T06:49:30.097Z,31.80
2019-06-08T06:50:03.707Z,31.77
2019-06-08T06:50:36.750Z,31.25
2019-06-08T06:51:24.962Z,31.73
2019-06-08T06:51:44.764Z,31.52
2019-06-08T06:52:17.830Z,31.42
2019-06-08T06:52:53.489Z,31.80
2019-06-08T06:53:26.542Z,31.57
2019-06-08T06:54:00.503Z,31.87
2019-06-08T06:54:33.559Z,31.82
2019-06-08T06:55:07.003Z,31.75
2019-06-08T06:55:40.035Z,31.90
2019-06-08T06:56:13.069Z,31.50
2019-06-08T06:56:47.059Z,31.60
2019-06-08T06:57:20.405Z,31.60
2019-06-08T06:57:53.685Z,31.85
2019-06-08T06:58:26.703Z,31.97
2019-06-08T06:58:59.790Z,31.80
2019-06-08T06:59:32.855Z,31.87
2019-06-08T07:00:06.909Z,31.50
2019-06-08T07:00:39.915Z,31.55
2019-06-08T07:01:13.328Z,32.25
2019-06-08T07:01:47.540Z,31.68
2019-06-08T07:02:21.338Z,31.85
2019-06-08T07:02:54.789Z,32.17
2019-06-08T07:03:28.952Z,32.30
2019-06-08T07:04:02.264Z,32.60
2019-06-08T07:04:35.286Z,31.90
2019-06-08T07:05:08.318Z,32.17
2019-06-08T07:05:41.405Z,32.03
2019-06-08T07:06:14.400Z,31.65
2019-06-08T07:06:48.102Z,32.10
2019-06-08T07:07:21.268Z,32.00
2019-06-08T07:07:54.511Z,32.70
2019-06-08T07:08:27.610Z,32.28
2019-06-08T07:09:00.764Z,32.35
2019-06-08T07:09:33.680Z,32.25
2019-06-08T07:10:06.846Z,32.10
2019-06-08T07:10:41.737Z,32.48
2019-06-08T07:11:14.683Z,32.70
2019-06-08T07:11:48.822Z,32.50